sensor_id;sensor_type;location;lat;lon;timestamp;pressure;altitude;pressure_sealevel;temperature;humidity
59106;BME280;44891;50.204;8.132;2023-04-26T00:01:01;98381.78;;;2.60;83.48
59106;BME280;44891;50.204;8.132;2023-04-26T00:05:05;98383.69;;;2.36;84.18
59106;BME280;44891;50.204;8.132;2023-04-26T00:09:08;98387.38;;;2.63;82.90
59106;BME280;44891;50.204;8.132;2023-04-26T00:13:10;98396.88;;;2.56;82.97
59106;BME280;44891;50.204;8.132;2023-04-26T00:17:13;98398.16;;;2.31;84.44
59106;BME280;44891;50.204;8.132;2023-04-26T00:21:15;98394.63;;;2.32;84.44
59106;BME280;44891;50.204;8.132;2023-04-26T00:25:17;98401.56;;;2.46;84.04
59106;BME280;44891;50.204;8.132;2023-04-26T00:29:19;98404.16;;;2.16;85.20
59106;BME280;44891;50.204;8.132;2023-04-26T00:33:23;98403.50;;;2.44;83.64
59106;BME280;44891;50.204;8.132;2023-04-26T00:37:25;98403.19;;;2.32;82.92
59106;BME280;44891;50.204;8.132;2023-04-26T00:41:27;98408.59;;;2.37;82.10
59106;BME280;44891;50.204;8.132;2023-04-26T00:45:29;98396.84;;;2.20;82.43
59106;BME280;44891;50.204;8.132;2023-04-26T00:49:32;98392.41;;;1.99;83.69
59106;BME280;44891;50.204;8.132;2023-04-26T00:53:34;98395.22;;;2.04;83.97
59106;BME280;44891;50.204;8.132;2023-04-26T00:57:36;98386.22;;;2.00;84.36
59106;BME280;44891;50.204;8.132;2023-04-26T01:01:39;98386.13;;;1.79;86.15
59106;BME280;44891;50.204;8.132;2023-04-26T01:05:43;98390.59;;;2.00;85.06
59106;BME280;44891;50.204;8.132;2023-04-26T01:09:45;98393.19;;;2.00;83.55
59106;BME280;44891;50.204;8.132;2023-04-26T01:13:47;98384.97;;;1.96;84.35
59106;BME280;44891;50.204;8.132;2023-04-26T01:17:51;98388.44;;;2.03;83.93
59106;BME280;44891;50.204;8.132;2023-04-26T01:21:54;98389.53;;;1.94;83.71
59106;BME280;44891;50.204;8.132;2023-04-26T01:25:57;98388.63;;;1.72;84.76
59106;BME280;44891;50.204;8.132;2023-04-26T01:30:00;98387.75;;;1.80;84.66
59106;BME280;44891;50.204;8.132;2023-04-26T01:34:01;98385.69;;;1.90;84.24
59106;BME280;44891;50.204;8.132;2023-04-26T01:38:03;98390.47;;;1.63;84.64
59106;BME280;44891;50.204;8.132;2023-04-26T01:42:07;98398.41;;;1.62;85.46
59106;BME280;44891;50.204;8.132;2023-04-26T01:46:08;98397.16;;;1.58;85.32
59106;BME280;44891;50.204;8.132;2023-04-26T01:50:10;98396.06;;;1.15;87.48
59106;BME280;44891;50.204;8.132;2023-04-26T01:54:13;98399.28;;;1.17;88.17
59106;BME280;44891;50.204;8.132;2023-04-26T01:58:17;98394.50;;;1.28;87.90
59106;BME280;44891;50.204;8.132;2023-04-26T02:02:19;98398.13;;;1.42;87.30
59106;BME280;44891;50.204;8.132;2023-04-26T02:06:21;98398.03;;;1.13;88.04
59106;BME280;44891;50.204;8.132;2023-04-26T02:10:22;98401.25;;;1.15;88.28
59106;BME280;44891;50.204;8.132;2023-04-26T02:14:26;98402.16;;;1.22;88.39
59106;BME280;44891;50.204;8.132;2023-04-26T02:18:28;98394.50;;;1.28;87.66
59106;BME280;44891;50.204;8.132;2023-04-26T02:22:29;98397.00;;;1.22;87.18
59106;BME280;44891;50.204;8.132;2023-04-26T02:26:31;98394.34;;;1.45;85.81
59106;BME280;44891;50.204;8.132;2023-04-26T02:30:36;98396.03;;;1.38;86.13
59106;BME280;44891;50.204;8.132;2023-04-26T02:34:37;98391.19;;;1.20;86.83
59106;BME280;44891;50.204;8.132;2023-04-26T02:38:40;98398.25;;;1.26;87.07
59106;BME280;44891;50.204;8.132;2023-04-26T02:42:42;98390.34;;;1.42;86.41
59106;BME280;44891;50.204;8.132;2023-04-26T02:46:45;98397.81;;;1.37;85.98
59106;BME280;44891;50.204;8.132;2023-04-26T02:50:48;98387.56;;;1.29;85.87
59106;BME280;44891;50.204;8.132;2023-04-26T02:54:50;98391.81;;;1.22;86.39
59106;BME280;44891;50.204;8.132;2023-04-26T02:58:52;98398.09;;;1.27;86.37
59106;BME280;44891;50.204;8.132;2023-04-26T03:02:55;98394.72;;;1.19;85.82
59106;BME280;44891;50.204;8.132;2023-04-26T03:06:57;98388.66;;;1.12;86.08
59106;BME280;44891;50.204;8.132;2023-04-26T03:11:00;98386.47;;;0.77;88.44
59106;BME280;44891;50.204;8.132;2023-04-26T03:15:02;98390.88;;;0.69;88.85
59106;BME280;44891;50.204;8.132;2023-04-26T03:19:06;98389.44;;;0.66;90.14
59106;BME280;44891;50.204;8.132;2023-04-26T03:23:09;98386.00;;;0.97;89.16
59106;BME280;44891;50.204;8.132;2023-04-26T03:27:11;98377.81;;;0.93;88.49
59106;BME280;44891;50.204;8.132;2023-04-26T03:31:13;98387.44;;;0.76;89.34
59106;BME280;44891;50.204;8.132;2023-04-26T03:35:16;98383.13;;;0.69;90.27
59106;BME280;44891;50.204;8.132;2023-04-26T03:39:18;98384.22;;;0.43;90.89
59106;BME280;44891;50.204;8.132;2023-04-26T03:43:20;98380.97;;;0.49;90.92
59106;BME280;44891;50.204;8.132;2023-04-26T03:47:22;98384.44;;;0.65;89.04
59106;BME280;44891;50.204;8.132;2023-04-26T03:51:26;98382.44;;;0.75;87.80
59106;BME280;44891;50.204;8.132;2023-04-26T03:55:28;98381.94;;;0.79;87.93
59106;BME280;44891;50.204;8.132;2023-04-26T03:59:30;98382.69;;;0.88;87.24
59106;BME280;44891;50.204;8.132;2023-04-26T04:03:33;98376.06;;;0.63;87.60
59106;BME280;44891;50.204;8.132;2023-04-26T04:07:36;98372.72;;;0.54;89.51
59106;BME280;44891;50.204;8.132;2023-04-26T04:11:38;98369.03;;;0.48;88.71
59106;BME280;44891;50.204;8.132;2023-04-26T04:15:40;98382.25;;;0.53;89.61
59106;BME280;44891;50.204;8.132;2023-04-26T04:19:43;98377.28;;;0.44;89.98
59106;BME280;44891;50.204;8.132;2023-04-26T04:23:47;98387.06;;;0.57;90.62
59106;BME280;44891;50.204;8.132;2023-04-26T04:27:49;98390.56;;;0.33;90.64
59106;BME280;44891;50.204;8.132;2023-04-26T04:31:54;98393.63;;;0.67;89.45
59106;BME280;44891;50.204;8.132;2023-04-26T04:35:56;98405.22;;;0.79;87.33
59106;BME280;44891;50.204;8.132;2023-04-26T04:39:59;98403.44;;;0.80;86.68
59106;BME280;44891;50.204;8.132;2023-04-26T04:44:03;98416.59;;;0.93;86.85
59106;BME280;44891;50.204;8.132;2023-04-26T04:48:05;98424.78;;;0.74;87.81
59106;BME280;44891;50.204;8.132;2023-04-26T04:52:09;98424.28;;;1.01;87.54
59106;BME280;44891;50.204;8.132;2023-04-26T04:56:12;98426.31;;;1.14;87.10
59106;BME280;44891;50.204;8.132;2023-04-26T05:00:15;98425.44;;;1.22;85.81
59106;BME280;44891;50.204;8.132;2023-04-26T05:04:22;98427.03;;;1.23;85.19
59106;BME280;44891;50.204;8.132;2023-04-26T05:08:24;98427.97;;;1.30;84.41
59106;BME280;44891;50.204;8.132;2023-04-26T05:12:27;98436.09;;;1.27;84.81
59106;BME280;44891;50.204;8.132;2023-04-26T05:16:29;98437.78;;;1.34;85.02
59106;BME280;44891;50.204;8.132;2023-04-26T05:20:33;98439.03;;;1.39;85.81
59106;BME280;44891;50.204;8.132;2023-04-26T05:24:35;98438.47;;;1.51;86.35
59106;BME280;44891;50.204;8.132;2023-04-26T05:28:39;98435.97;;;1.58;85.57
59106;BME280;44891;50.204;8.132;2023-04-26T05:32:57;98440.84;;;1.76;85.40
59106;BME280;44891;50.204;8.132;2023-04-26T05:37:08;98445.59;;;1.87;86.56
59106;BME280;44891;50.204;8.132;2023-04-26T05:41:09;98451.69;;;2.09;85.63
59106;BME280;44891;50.204;8.132;2023-04-26T05:45:13;98451.78;;;2.15;85.76
59106;BME280;44891;50.204;8.132;2023-04-26T05:49:15;98456.72;;;2.40;84.92
59106;BME280;44891;50.204;8.132;2023-04-26T05:53:18;98462.69;;;2.55;84.92
59106;BME280;44891;50.204;8.132;2023-04-26T05:57:22;98465.25;;;2.70;84.75
59106;BME280;44891;50.204;8.132;2023-04-26T06:01:26;98470.94;;;2.95;84.27
59106;BME280;44891;50.204;8.132;2023-04-26T06:05:28;98467.06;;;3.06;84.81
59106;BME280;44891;50.204;8.132;2023-04-26T06:09:31;98476.03;;;3.24;83.86
59106;BME280;44891;50.204;8.132;2023-04-26T06:13:33;98479.19;;;3.41;83.38
59106;BME280;44891;50.204;8.132;2023-04-26T06:17:37;98481.81;;;3.69;82.58
59106;BME280;44891;50.204;8.132;2023-04-26T06:21:38;98482.56;;;3.85;81.97
59106;BME280;44891;50.204;8.132;2023-04-26T06:25:40;98477.50;;;4.04;81.38
59106;BME280;44891;50.204;8.132;2023-04-26T06:29:45;98479.44;;;4.24;81.02
59106;BME280;44891;50.204;8.132;2023-04-26T06:33:49;98484.44;;;4.60;79.66
59106;BME280;44891;50.204;8.132;2023-04-26T06:37:52;98475.97;;;4.93;78.18
59106;BME280;44891;50.204;8.132;2023-04-26T06:41:54;98471.81;;;5.11;76.89
59106;BME280;44891;50.204;8.132;2023-04-26T06:46:02;98463.84;;;5.33;74.74
59106;BME280;44891;50.204;8.132;2023-04-26T06:50:06;98471.09;;;5.70;72.80
59106;BME280;44891;50.204;8.132;2023-04-26T06:54:09;98479.72;;;5.71;69.75
59106;BME280;44891;50.204;8.132;2023-04-26T06:58:10;98477.53;;;5.81;67.89
59106;BME280;44891;50.204;8.132;2023-04-26T07:02:12;98473.53;;;5.98;68.17
59106;BME280;44891;50.204;8.132;2023-04-26T07:06:16;98481.91;;;6.20;68.44
59106;BME280;44891;50.204;8.132;2023-04-26T07:10:17;98492.31;;;6.40;67.45
59106;BME280;44891;50.204;8.132;2023-04-26T07:14:20;98488.47;;;6.63;66.32
59106;BME280;44891;50.204;8.132;2023-04-26T07:18:22;98482.63;;;6.74;65.60
59106;BME280;44891;50.204;8.132;2023-04-26T07:22:25;98475.94;;;6.78;61.78
59106;BME280;44891;50.204;8.132;2023-04-26T07:26:27;98478.94;;;6.88;60.87
59106;BME280;44891;50.204;8.132;2023-04-26T07:30:29;98475.25;;;7.02;60.43
59106;BME280;44891;50.204;8.132;2023-04-26T07:34:32;98475.56;;;7.19;59.15
59106;BME280;44891;50.204;8.132;2023-04-26T07:38:35;98478.38;;;7.18;59.79
59106;BME280;44891;50.204;8.132;2023-04-26T07:42:37;98469.97;;;7.16;60.41
59106;BME280;44891;50.204;8.132;2023-04-26T07:46:39;98473.56;;;7.21;61.37
59106;BME280;44891;50.204;8.132;2023-04-26T07:50:42;98469.94;;;7.22;59.83
59106;BME280;44891;50.204;8.132;2023-04-26T07:54:45;98470.81;;;7.41;59.78
59106;BME280;44891;50.204;8.132;2023-04-26T07:58:47;98468.75;;;7.50;59.67
59106;BME280;44891;50.204;8.132;2023-04-26T08:02:49;98471.56;;;7.48;60.02
59106;BME280;44891;50.204;8.132;2023-04-26T08:06:51;98479.84;;;7.70;59.29
59106;BME280;44891;50.204;8.132;2023-04-26T08:10:54;98471.44;;;7.93;58.18
59106;BME280;44891;50.204;8.132;2023-04-26T08:14:56;98471.19;;;8.20;57.57
59106;BME280;44891;50.204;8.132;2023-04-26T08:19:00;98472.88;;;8.32;56.96
59106;BME280;44891;50.204;8.132;2023-04-26T08:23:02;98476.63;;;8.61;56.51
59106;BME280;44891;50.204;8.132;2023-04-26T08:27:06;98466.44;;;8.71;55.72
59106;BME280;44891;50.204;8.132;2023-04-26T08:31:08;98468.81;;;9.21;54.14
59106;BME280;44891;50.204;8.132;2023-04-26T08:35:10;98464.94;;;9.54;51.33
59106;BME280;44891;50.204;8.132;2023-04-26T08:39:12;98460.84;;;9.58;50.48
59106;BME280;44891;50.204;8.132;2023-04-26T08:43:15;98456.16;;;8.88;51.77
59106;BME280;44891;50.204;8.132;2023-04-26T08:47:18;98466.28;;;9.45;52.52
59106;BME280;44891;50.204;8.132;2023-04-26T08:51:20;98469.31;;;9.72;51.20
59106;BME280;44891;50.204;8.132;2023-04-26T08:55:22;98460.72;;;9.53;51.25
59106;BME280;44891;50.204;8.132;2023-04-26T08:59:25;98460.59;;;9.48;51.15
59106;BME280;44891;50.204;8.132;2023-04-26T09:03:27;98471.34;;;9.81;50.25
59106;BME280;44891;50.204;8.132;2023-04-26T09:07:30;98465.03;;;10.24;49.60
59106;BME280;44891;50.204;8.132;2023-04-26T09:15:50;98463.16;;;9.90;49.58
59106;BME280;44891;50.204;8.132;2023-04-26T09:19:53;98450.84;;;10.02;49.65
59106;BME280;44891;50.204;8.132;2023-04-26T09:23:58;98456.88;;;10.14;48.86
59106;BME280;44891;50.204;8.132;2023-04-26T09:28:01;98443.97;;;9.89;48.50
59106;BME280;44891;50.204;8.132;2023-04-26T09:32:05;98439.53;;;9.66;49.28
59106;BME280;44891;50.204;8.132;2023-04-26T09:36:10;98435.44;;;10.41;49.07
59106;BME280;44891;50.204;8.132;2023-04-26T09:40:16;98436.31;;;10.58;49.03
59106;BME280;44891;50.204;8.132;2023-04-26T09:44:19;98431.25;;;10.68;47.86
59106;BME280;44891;50.204;8.132;2023-04-26T09:48:23;98429.25;;;10.87;47.92
59106;BME280;44891;50.204;8.132;2023-04-26T09:52:26;98437.66;;;11.01;48.11
59106;BME280;44891;50.204;8.132;2023-04-26T09:56:28;98440.38;;;10.77;47.72
59106;BME280;44891;50.204;8.132;2023-04-26T10:00:30;98438.34;;;10.56;46.95
59106;BME280;44891;50.204;8.132;2023-04-26T10:04:33;98437.03;;;10.42;46.12
59106;BME280;44891;50.204;8.132;2023-04-26T10:08:36;98432.16;;;11.02;45.32
59106;BME280;44891;50.204;8.132;2023-04-26T10:12:38;98435.84;;;11.63;44.60
59106;BME280;44891;50.204;8.132;2023-04-26T10:16:42;98433.22;;;11.97;44.30
59106;BME280;44891;50.204;8.132;2023-04-26T10:20:47;98419.00;;;11.98;43.52
59106;BME280;44891;50.204;8.132;2023-04-26T10:24:52;98417.25;;;11.53;44.40
59106;BME280;44891;50.204;8.132;2023-04-26T10:28:54;98410.16;;;10.63;44.92
59106;BME280;44891;50.204;8.132;2023-04-26T10:37:20;98415.34;;;11.32;43.96
59106;BME280;44891;50.204;8.132;2023-04-26T10:41:29;98405.38;;;11.51;41.88
59106;BME280;44891;50.204;8.132;2023-04-26T10:45:31;98400.03;;;11.46;42.14
59106;BME280;44891;50.204;8.132;2023-04-26T10:49:42;98390.06;;;11.64;42.81
59106;BME280;44891;50.204;8.132;2023-04-26T10:53:58;98401.19;;;11.83;42.60
59106;BME280;44891;50.204;8.132;2023-04-26T10:58:01;98395.91;;;11.83;42.98
59106;BME280;44891;50.204;8.132;2023-04-26T11:06:48;98382.47;;;12.02;40.99
59106;BME280;44891;50.204;8.132;2023-04-26T11:10:55;98386.09;;;12.39;41.68
59106;BME280;44891;50.204;8.132;2023-04-26T11:14:58;98373.41;;;12.58;40.50
59106;BME280;44891;50.204;8.132;2023-04-26T11:19:00;98375.09;;;12.91;40.20
59106;BME280;44891;50.204;8.132;2023-04-26T11:23:04;98376.19;;;12.95;39.29
59106;BME280;44891;50.204;8.132;2023-04-26T11:27:08;98373.78;;;13.48;39.83
59106;BME280;44891;50.204;8.132;2023-04-26T11:31:10;98366.22;;;13.62;39.19
59106;BME280;44891;50.204;8.132;2023-04-26T11:35:14;98372.66;;;14.28;38.04
59106;BME280;44891;50.204;8.132;2023-04-26T11:39:17;98359.41;;;15.01;37.57
59106;BME280;44891;50.204;8.132;2023-04-26T11:43:20;98356.91;;;14.59;37.11
59106;BME280;44891;50.204;8.132;2023-04-26T11:47:21;98358.53;;;14.70;36.90
59106;BME280;44891;50.204;8.132;2023-04-26T11:51:25;98355.88;;;14.60;36.90
59106;BME280;44891;50.204;8.132;2023-04-26T11:55:31;98356.44;;;14.09;36.51
59106;BME280;44891;50.204;8.132;2023-04-26T11:59:33;98347.44;;;14.05;36.91
59106;BME280;44891;50.204;8.132;2023-04-26T12:03:36;98349.53;;;13.93;36.60
59106;BME280;44891;50.204;8.132;2023-04-26T12:07:38;98343.31;;;12.76;39.22
59106;BME280;44891;50.204;8.132;2023-04-26T12:11:41;98341.63;;;12.65;39.70
59106;BME280;44891;50.204;8.132;2023-04-26T12:15:48;98337.81;;;13.10;37.24
59106;BME280;44891;50.204;8.132;2023-04-26T12:19:52;98341.75;;;13.39;37.83
59106;BME280;44891;50.204;8.132;2023-04-26T12:23:54;98340.94;;;13.71;37.05
59106;BME280;44891;50.204;8.132;2023-04-26T12:27:58;98331.78;;;13.88;37.02
59106;BME280;44891;50.204;8.132;2023-04-26T12:32:01;98338.72;;;14.00;36.90
59106;BME280;44891;50.204;8.132;2023-04-26T12:36:07;98344.56;;;14.07;37.50
59106;BME280;44891;50.204;8.132;2023-04-26T12:40:09;98339.88;;;14.24;37.80
59106;BME280;44891;50.204;8.132;2023-04-26T12:44:13;98332.09;;;14.55;38.26
59106;BME280;44891;50.204;8.132;2023-04-26T12:48:15;98343.50;;;14.81;36.32
59106;BME280;44891;50.204;8.132;2023-04-26T12:52:16;98341.38;;;14.67;36.68
59106;BME280;44891;50.204;8.132;2023-04-26T12:56:18;98334.53;;;15.48;35.15
59106;BME280;44891;50.204;8.132;2023-04-26T13:00:22;98327.88;;;15.81;33.70
59106;BME280;44891;50.204;8.132;2023-04-26T13:04:25;98334.81;;;15.46;35.33
59106;BME280;44891;50.204;8.132;2023-04-26T13:08:27;98333.72;;;14.96;34.90
59106;BME280;44891;50.204;8.132;2023-04-26T13:12:29;98328.94;;;14.68;36.00
59106;BME280;44891;50.204;8.132;2023-04-26T13:16:32;98338.13;;;14.50;36.14
59106;BME280;44891;50.204;8.132;2023-04-26T13:20:34;98337.00;;;14.36;37.68
59106;BME280;44891;50.204;8.132;2023-04-26T13:24:37;98333.94;;;14.64;36.82
59106;BME280;44891;50.204;8.132;2023-04-26T13:28:39;98331.88;;;15.22;35.61
59106;BME280;44891;50.204;8.132;2023-04-26T13:32:42;98332.13;;;15.57;33.48
59106;BME280;44891;50.204;8.132;2023-04-26T13:36:45;98333.19;;;15.50;33.81
59106;BME280;44891;50.204;8.132;2023-04-26T13:40:46;98328.44;;;15.68;34.18
59106;BME280;44891;50.204;8.132;2023-04-26T13:44:48;98324.63;;;16.04;34.33
59106;BME280;44891;50.204;8.132;2023-04-26T13:48:52;98322.31;;;15.77;33.78
59106;BME280;44891;50.204;8.132;2023-04-26T13:52:54;98322.56;;;15.86;34.07
59106;BME280;44891;50.204;8.132;2023-04-26T13:56:56;98326.56;;;15.58;33.47
59106;BME280;44891;50.204;8.132;2023-04-26T14:00:58;98330.81;;;15.59;34.06
59106;BME280;44891;50.204;8.132;2023-04-26T14:05:02;98330.03;;;15.43;34.09
59106;BME280;44891;50.204;8.132;2023-04-26T14:09:04;98315.97;;;15.73;33.46
59106;BME280;44891;50.204;8.132;2023-04-26T14:13:06;98305.66;;;15.51;33.54
59106;BME280;44891;50.204;8.132;2023-04-26T14:17:08;98303.84;;;15.37;34.67
59106;BME280;44891;50.204;8.132;2023-04-26T14:21:12;98300.13;;;15.43;34.27
59106;BME280;44891;50.204;8.132;2023-04-26T14:25:14;98299.88;;;14.83;35.49
59106;BME280;44891;50.204;8.132;2023-04-26T14:29:16;98304.63;;;14.61;35.03
59106;BME280;44891;50.204;8.132;2023-04-26T14:33:18;98289.81;;;14.85;34.28
59106;BME280;44891;50.204;8.132;2023-04-26T14:37:21;98284.72;;;15.75;33.55
59106;BME280;44891;50.204;8.132;2023-04-26T14:41:23;98292.56;;;17.58;31.20
59106;BME280;44891;50.204;8.132;2023-04-26T14:45:25;98289.53;;;16.28;32.58
59106;BME280;44891;50.204;8.132;2023-04-26T14:49:27;98285.38;;;17.00;31.44
59106;BME280;44891;50.204;8.132;2023-04-26T14:53:30;98285.38;;;18.30;29.87
59106;BME280;44891;50.204;8.132;2023-04-26T14:57:32;98287.88;;;18.59;28.74
59106;BME280;44891;50.204;8.132;2023-04-26T15:01:34;98276.69;;;18.43;29.01
59106;BME280;44891;50.204;8.132;2023-04-26T15:05:36;98268.03;;;19.22;28.91
59106;BME280;44891;50.204;8.132;2023-04-26T15:09:40;98274.91;;;17.96;30.54
59106;BME280;44891;50.204;8.132;2023-04-26T15:13:42;98272.78;;;17.16;31.89
59106;BME280;44891;50.204;8.132;2023-04-26T15:17:43;98273.31;;;18.76;30.58
59106;BME280;44891;50.204;8.132;2023-04-26T15:21:45;98258.59;;;19.29;28.91
59106;BME280;44891;50.204;8.132;2023-04-26T15:25:48;98254.75;;;20.04;27.89
59106;BME280;44891;50.204;8.132;2023-04-26T15:29:51;98265.88;;;20.92;27.27
59106;BME280;44891;50.204;8.132;2023-04-26T15:33:54;98266.53;;;19.90;28.06
59106;BME280;44891;50.204;8.132;2023-04-26T15:37:55;98262.28;;;20.38;26.66
59106;BME280;44891;50.204;8.132;2023-04-26T15:41:59;98255.50;;;20.91;26.00
59106;BME280;44891;50.204;8.132;2023-04-26T15:46:02;98260.84;;;19.22;28.16
59106;BME280;44891;50.204;8.132;2023-04-26T15:50:04;98272.09;;;17.34;29.33
59106;BME280;44891;50.204;8.132;2023-04-26T15:54:07;98263.91;;;16.13;31.75
59106;BME280;44891;50.204;8.132;2023-04-26T15:58:10;98261.69;;;16.36;32.49
59106;BME280;44891;50.204;8.132;2023-04-26T16:02:12;98255.09;;;16.72;32.03
59106;BME280;44891;50.204;8.132;2023-04-26T16:06:14;98261.81;;;16.99;30.89
59106;BME280;44891;50.204;8.132;2023-04-26T16:10:16;98256.38;;;17.09;30.51
59106;BME280;44891;50.204;8.132;2023-04-26T16:14:19;98252.44;;;16.77;30.48
59106;BME280;44891;50.204;8.132;2023-04-26T16:18:21;98248.97;;;16.38;30.39
59106;BME280;44891;50.204;8.132;2023-04-26T16:22:23;98245.41;;;16.08;31.29
59106;BME280;44891;50.204;8.132;2023-04-26T16:26:25;98243.41;;;15.85;31.29
59106;BME280;44891;50.204;8.132;2023-04-26T16:30:28;98238.97;;;15.44;32.17
59106;BME280;44891;50.204;8.132;2023-04-26T16:34:30;98243.94;;;15.76;31.95
59106;BME280;44891;50.204;8.132;2023-04-26T16:38:32;98245.88;;;15.40;31.92
59106;BME280;44891;50.204;8.132;2023-04-26T16:42:34;98245.09;;;15.40;33.48
59106;BME280;44891;50.204;8.132;2023-04-26T16:46:37;98249.91;;;15.12;32.68
59106;BME280;44891;50.204;8.132;2023-04-26T16:50:39;98247.22;;;15.17;31.80
59106;BME280;44891;50.204;8.132;2023-04-26T16:54:41;98247.78;;;14.84;32.53
59106;BME280;44891;50.204;8.132;2023-04-26T16:58:43;98242.50;;;14.79;32.56
59106;BME280;44891;50.204;8.132;2023-04-26T17:02:46;98243.00;;;14.50;33.71
59106;BME280;44891;50.204;8.132;2023-04-26T17:06:49;98251.94;;;14.29;34.38
59106;BME280;44891;50.204;8.132;2023-04-26T17:10:50;98251.75;;;13.78;36.26
59106;BME280;44891;50.204;8.132;2023-04-26T17:14:52;98250.06;;;13.56;36.38
59106;BME280;44891;50.204;8.132;2023-04-26T17:18:55;98208.63;;;13.10;37.00
59106;BME280;44891;50.204;8.132;2023-04-26T17:22:57;98255.09;;;12.84;37.64
59106;BME280;44891;50.204;8.132;2023-04-26T17:26:59;98263.22;;;12.77;39.21
59106;BME280;44891;50.204;8.132;2023-04-26T17:31:02;98255.06;;;12.51;40.11
59106;BME280;44891;50.204;8.132;2023-04-26T17:35:05;98261.13;;;12.25;40.15
59106;BME280;44891;50.204;8.132;2023-04-26T17:39:08;98267.31;;;12.14;40.60
59106;BME280;44891;50.204;8.132;2023-04-26T17:43:10;98265.06;;;12.01;41.22
59106;BME280;44891;50.204;8.132;2023-04-26T17:47:11;98268.47;;;11.79;41.53
59106;BME280;44891;50.204;8.132;2023-04-26T17:51:15;98270.75;;;11.54;42.20
59106;BME280;44891;50.204;8.132;2023-04-26T17:55:16;98276.69;;;11.44;42.60
59106;BME280;44891;50.204;8.132;2023-04-26T17:59:18;98285.16;;;11.29;43.04
59106;BME280;44891;50.204;8.132;2023-04-26T18:03:20;98281.19;;;11.10;42.81
59106;BME280;44891;50.204;8.132;2023-04-26T18:07:24;98282.31;;;10.97;43.64
59106;BME280;44891;50.204;8.132;2023-04-26T18:11:26;98290.63;;;10.94;44.08
59106;BME280;44891;50.204;8.132;2023-04-26T18:15:28;98293.91;;;10.84;44.31
59106;BME280;44891;50.204;8.132;2023-04-26T18:19:30;98295.81;;;10.72;44.70
59106;BME280;44891;50.204;8.132;2023-04-26T18:23:33;98298.16;;;10.57;45.28
59106;BME280;44891;50.204;8.132;2023-04-26T18:27:35;98305.72;;;10.53;46.58
59106;BME280;44891;50.204;8.132;2023-04-26T18:31:37;98309.28;;;10.47;46.83
59106;BME280;44891;50.204;8.132;2023-04-26T18:35:39;98313.06;;;9.76;49.14
59106;BME280;44891;50.204;8.132;2023-04-26T18:39:42;98315.47;;;9.31;50.46
59106;BME280;44891;50.204;8.132;2023-04-26T18:43:44;98312.50;;;9.15;51.57
59106;BME280;44891;50.204;8.132;2023-04-26T18:47:46;98319.34;;;9.16;52.09
59106;BME280;44891;50.204;8.132;2023-04-26T18:51:48;98327.72;;;8.95;52.59
59106;BME280;44891;50.204;8.132;2023-04-26T18:55:51;98332.72;;;8.55;53.15
59106;BME280;44891;50.204;8.132;2023-04-26T18:59:53;98335.16;;;8.20;54.93
59106;BME280;44891;50.204;8.132;2023-04-26T19:03:56;98338.63;;;8.32;55.49
59106;BME280;44891;50.204;8.132;2023-04-26T19:07:58;98348.94;;;7.90;56.26
59106;BME280;44891;50.204;8.132;2023-04-26T19:12:01;98352.41;;;7.66;57.55
59106;BME280;44891;50.204;8.132;2023-04-26T19:16:05;98360.78;;;7.24;59.06
59106;BME280;44891;50.204;8.132;2023-04-26T19:20:07;98362.06;;;7.65;59.02
59106;BME280;44891;50.204;8.132;2023-04-26T19:24:12;98368.44;;;7.94;58.74
59106;BME280;44891;50.204;8.132;2023-04-26T19:28:15;98362.88;;;7.84;58.92
59106;BME280;44891;50.204;8.132;2023-04-26T19:32:17;98375.81;;;7.79;58.54
59106;BME280;44891;50.204;8.132;2023-04-26T19:36:22;98373.19;;;7.60;59.35
59106;BME280;44891;50.204;8.132;2023-04-26T19:40:24;98379.31;;;6.91;60.60
59106;BME280;44891;50.204;8.132;2023-04-26T19:44:27;98376.97;;;6.38;62.75
59106;BME280;44891;50.204;8.132;2023-04-26T19:48:29;98373.75;;;6.36;62.96
59106;BME280;44891;50.204;8.132;2023-04-26T19:52:31;98373.50;;;6.51;61.76
59106;BME280;44891;50.204;8.132;2023-04-26T19:56:33;98377.28;;;6.62;62.30
59106;BME280;44891;50.204;8.132;2023-04-26T20:00:36;98384.06;;;6.69;62.94
59106;BME280;44891;50.204;8.132;2023-04-26T20:04:39;98384.66;;;6.65;64.13
59106;BME280;44891;50.204;8.132;2023-04-26T20:08:42;98393.72;;;6.62;63.65
59106;BME280;44891;50.204;8.132;2023-04-26T20:12:44;98388.78;;;6.47;62.97
59106;BME280;44891;50.204;8.132;2023-04-26T20:16:47;98396.06;;;6.19;63.36
59106;BME280;44891;50.204;8.132;2023-04-26T20:20:49;98392.31;;;5.88;63.91
59106;BME280;44891;50.204;8.132;2023-04-26T20:24:52;98395.75;;;5.76;65.17
59106;BME280;44891;50.204;8.132;2023-04-26T20:28:53;98398.13;;;6.04;65.50
59106;BME280;44891;50.204;8.132;2023-04-26T20:32:57;98392.91;;;5.90;65.83
59106;BME280;44891;50.204;8.132;2023-04-26T20:36:58;98397.13;;;5.85;66.27
59106;BME280;44891;50.204;8.132;2023-04-26T20:41:00;98393.75;;;5.38;67.43
59106;BME280;44891;50.204;8.132;2023-04-26T20:45:03;98395.94;;;5.67;66.60
59106;BME280;44891;50.204;8.132;2023-04-26T20:49:06;98394.56;;;5.45;66.54
59106;BME280;44891;50.204;8.132;2023-04-26T20:53:08;98390.56;;;5.36;67.03
59106;BME280;44891;50.204;8.132;2023-04-26T20:57:10;98398.53;;;5.21;67.36
59106;BME280;44891;50.204;8.132;2023-04-26T21:01:12;98403.75;;;5.28;67.09
59106;BME280;44891;50.204;8.132;2023-04-26T21:05:15;98405.75;;;5.19;67.57
59106;BME280;44891;50.204;8.132;2023-04-26T21:09:17;98416.13;;;4.99;68.32
59106;BME280;44891;50.204;8.132;2023-04-26T21:13:19;98407.06;;;4.82;68.69
59106;BME280;44891;50.204;8.132;2023-04-26T21:17:22;98416.09;;;4.93;68.93
59106;BME280;44891;50.204;8.132;2023-04-26T21:21:25;98410.88;;;4.86;68.64
59106;BME280;44891;50.204;8.132;2023-04-26T21:25:28;98406.72;;;4.37;71.07
59106;BME280;44891;50.204;8.132;2023-04-26T21:29:30;98408.03;;;4.68;70.54
59106;BME280;44891;50.204;8.132;2023-04-26T21:33:32;98411.06;;;4.71;70.28
59106;BME280;44891;50.204;8.132;2023-04-26T21:37:36;98402.22;;;4.18;71.55
59106;BME280;44891;50.204;8.132;2023-04-26T21:41:38;98404.09;;;4.30;70.82
59106;BME280;44891;50.204;8.132;2023-04-26T21:45:39;98407.91;;;4.34;70.97
59106;BME280;44891;50.204;8.132;2023-04-26T21:49:41;98414.13;;;4.40;71.04